createdAt,value
2018-11-12T00:00:25.779Z,30.70
2018-11-12T00:02:57.302Z,25.83
2018-11-12T00:05:26.637Z,25.65
2018-11-12T00:07:56.499Z,26.62
2018-11-12T00:10:25.968Z,27.40
2018-11-12T00:12:55.370Z,31.07
2018-11-12T00:15:25.251Z,39.25
2018-11-12T00:17:54.747Z,39.53
2018-11-12T00:20:24.371Z,35.10
2018-11-12T00:22:53.804Z,39.35
2018-11-12T00:25:23.241Z,35.03
2018-11-12T00:27:53.024Z,31.23
2018-11-12T00:30:22.293Z,35.17
2018-11-12T00:32:51.835Z,31.13
2018-11-12T00:35:21.324Z,33.42
2018-11-12T00:37:50.928Z,32.77
2018-11-12T00:40:20.675Z,31.27
2018-11-12T00:42:49.943Z,30.00
2018-11-12T00:45:19.275Z,29.93
2018-11-12T00:47:48.657Z,26.17
2018-11-12T00:50:18.321Z,23.83
2018-11-12T00:52:47.722Z,20.33
2018-11-12T00:55:17.328Z,20.10
2018-11-12T00:57:46.877Z,18.47
2018-11-12T01:00:18.545Z,23.80
2018-11-12T01:02:48.928Z,21.70
2018-11-12T01:05:19.148Z,16.30
2018-11-12T01:07:49.056Z,17.53
2018-11-12T01:10:19.925Z,19.07
2018-11-12T01:12:49.102Z,17.47
2018-11-12T01:15:19.648Z,16.95
2018-11-12T01:17:48.891Z,20.10
2018-11-12T01:20:18.649Z,19.53
2018-11-12T01:22:47.926Z,20.03
2018-11-12T01:25:17.144Z,22.37
2018-11-12T01:27:46.532Z,20.40
2018-11-12T01:30:17.942Z,25.17
2018-11-12T01:32:47.301Z,23.27
2018-11-12T01:35:17.420Z,22.43
2018-11-12T01:37:46.668Z,23.63
2018-11-12T01:40:16.525Z,27.60
2018-11-12T01:42:46.040Z,24.43
2018-11-12T01:45:17.333Z,26.30
2018-11-12T01:47:47.717Z,24.00
2018-11-12T01:50:17.489Z,24.47
2018-11-12T01:52:47.429Z,27.70
2018-11-12T01:55:17.708Z,31.90
2018-11-12T01:57:47.072Z,32.83
2018-11-12T02:00:18.142Z,26.53
2018-11-12T02:02:48.475Z,30.53
2018-11-12T02:05:18.224Z,35.53
2018-11-12T02:07:47.387Z,35.80
2018-11-12T02:10:17.705Z,39.50
2018-11-12T02:12:47.033Z,45.03
2018-11-12T02:15:18.428Z,47.63
2018-11-12T02:17:48.234Z,64.50
2018-11-12T02:20:18.659Z,31.50
2018-11-12T02:22:48.945Z,35.23
2018-11-12T02:25:18.031Z,45.60
2018-11-12T02:27:48.412Z,45.53
2018-11-12T02:30:23.594Z,33.73
2018-11-12T02:32:54.583Z,44.90
2018-11-12T02:35:23.747Z,54.35
2018-11-12T02:37:52.914Z,35.00
2018-11-12T02:40:22.152Z,37.23
2018-11-12T02:42:51.374Z,38.00
2018-11-12T02:45:20.534Z,35.83
2018-11-12T02:47:49.741Z,40.77
2018-11-12T02:50:19.040Z,31.50
2018-11-12T02:52:48.201Z,46.57
2018-11-12T02:55:17.475Z,53.17
2018-11-12T02:57:47.545Z,49.67
2018-11-12T03:00:19.123Z,53.73
2018-11-12T03:02:48.359Z,33.60
2018-11-12T03:05:17.622Z,33.40
2018-11-12T03:07:46.928Z,35.97
2018-11-12T03:10:19.630Z,37.42
2018-11-12T03:12:48.885Z,39.53
2018-11-12T03:15:18.830Z,48.87
2018-11-12T03:17:48.647Z,54.23
2018-11-12T03:20:18.999Z,41.87
2018-11-12T03:22:48.286Z,52.27
2018-11-12T03:25:18.796Z,33.80
2018-11-12T03:27:48.578Z,28.73
2018-11-12T03:30:18.950Z,42.43
2018-11-12T03:32:48.839Z,39.03
2018-11-12T03:35:18.021Z,32.47
2018-11-12T03:37:48.179Z,42.77
2018-11-12T03:40:19.387Z,37.50
2018-11-12T03:42:49.098Z,40.03
2018-11-12T03:45:21.464Z,42.27
2018-11-12T03:47:50.607Z,35.80
2018-11-12T03:50:20.898Z,42.93
2018-11-12T03:52:50.135Z,59.97
2018-11-12T03:55:20.558Z,77.60
2018-11-12T03:57:49.784Z,27.47
2018-11-12T04:00:21.386Z,53.70
2018-11-12T04:02:50.533Z,26.97
2018-11-12T04:05:19.704Z,113.23
2018-11-12T04:07:48.867Z,119.70
2018-11-12T04:10:18.947Z,75.00
2018-11-12T04:12:48.100Z,34.87
2018-11-12T04:15:20.579Z,58.00
2018-11-12T04:17:49.767Z,40.70
2018-11-12T04:20:20.153Z,27.33
2018-11-12T04:22:54.509Z,28.30
2018-11-12T04:25:23.709Z,54.67
2018-11-12T04:27:52.915Z,31.73
2018-11-12T04:30:22.091Z,46.50
2018-11-12T04:32:51.312Z,26.90
2018-11-12T04:35:20.466Z,38.77
2018-11-12T04:37:49.689Z,40.63
2018-11-12T04:40:19.498Z,70.13
2018-11-12T04:42:49.168Z,20.90
2018-11-12T04:45:19.742Z,36.63
2018-11-12T04:47:49.756Z,38.37
2018-11-12T04:50:20.595Z,18.53
2018-11-12T04:52:50.661Z,33.87
2018-11-12T04:55:20.974Z,71.07
2018-11-12T04:57:50.107Z,69.87
2018-11-12T05:00:24.465Z,42.63
2018-11-12T05:02:53.673Z,66.07
2018-11-12T05:05:24.191Z,44.00
2018-11-12T05:07:53.483Z,85.27
2018-11-12T05:10:23.929Z,75.62
2018-11-12T05:12:53.687Z,37.70
2018-11-12T05:15:23.806Z,69.50
2018-11-12T05:17:53.013Z,78.07
2018-11-12T05:20:29.825Z,29.60
2018-11-12T05:22:59.148Z,21.07
2018-11-12T05:25:28.425Z,50.03
2018-11-12T05:27:57.622Z,20.63
2018-11-12T05:30:27.972Z,28.30
2018-11-12T05:32:57.646Z,46.73
2018-11-12T05:35:27.921Z,24.77
2018-11-12T05:37:57.473Z,22.60
2018-11-12T05:40:27.788Z,26.45
2018-11-12T05:42:57.115Z,15.93
2018-11-12T05:45:27.506Z,18.23
2018-11-12T05:47:56.808Z,18.70
2018-11-12T05:50:27.387Z,14.53
2018-11-12T05:52:58.462Z,29.92
2018-11-12T05:55:28.615Z,25.80
2018-11-12T05:57:58.037Z,53.63
2018-11-12T06:00:29.172Z,27.93
2018-11-12T06:02:58.456Z,24.63
2018-11-12T06:05:27.728Z,29.57
2018-11-12T06:08:27.912Z,25.97
2018-11-12T06:10:57.368Z,14.50
2018-11-12T06:13:26.591Z,17.77
2018-11-12T06:15:55.803Z,15.63
2018-11-12T06:18:25.048Z,16.97
2018-11-12T06:20:54.315Z,18.40
2018-11-12T06:23:23.556Z,23.57
2018-11-12T06:25:52.803Z,19.00
2018-11-12T06:28:22.062Z,18.80
2018-11-12T06:30:51.346Z,20.43
2018-11-12T06:33:20.588Z,19.30
2018-11-12T06:35:52.446Z,17.50
2018-11-12T06:38:22.022Z,22.47
2018-11-12T06:40:51.245Z,53.53
2018-11-12T06:43:20.602Z,17.10
2018-11-12T06:45:49.799Z,24.13
2018-11-12T06:48:19.017Z,17.10
2018-11-12T06:50:48.624Z,16.65
2018-11-12T06:53:18.773Z,17.17
2018-11-12T06:55:48.719Z,19.07
2018-11-12T06:58:18.832Z,34.90
2018-11-12T07:00:48.735Z,19.60
2018-11-12T07:03:18.711Z,30.85
2018-11-12T07:05:48.703Z,19.30
2018-11-12T07:08:19.572Z,17.60
2018-11-12T07:10:48.890Z,19.00
2018-11-12T07:13:19.434Z,19.10
2018-11-12T07:15:48.913Z,23.50
2018-11-12T07:18:19.428Z,16.00
2018-11-12T07:20:48.974Z,18.40
2018-11-12T07:23:19.197Z,16.97
2018-11-12T07:25:49.050Z,17.52
2018-11-12T07:28:19.022Z,18.35
2018-11-12T07:30:49.148Z,17.25
2018-11-12T07:33:19.242Z,15.55
2018-11-12T07:35:49.068Z,20.27
2018-11-12T07:38:19.494Z,16.90
2018-11-12T07:40:51.048Z,18.42
2018-11-12T07:43:20.246Z,15.83
2018-11-12T07:45:49.466Z,17.00
2018-11-12T07:48:19.139Z,22.93
2018-11-12T07:50:49.573Z,18.53
2018-11-12T07:53:19.187Z,16.35
2018-11-12T07:55:55.584Z,16.32
2018-11-12T07:58:24.815Z,14.20
2018-11-12T08:00:54.125Z,18.40
2018-11-12T08:03:23.416Z,19.83
2018-11-12T08:05:52.644Z,19.17
2018-11-12T08:08:21.919Z,19.20
2018-11-12T08:10:51.117Z,18.33
2018-11-12T08:13:20.392Z,16.23
2018-11-12T08:15:49.657Z,18.33
2018-11-12T08:18:19.401Z,21.50
2018-11-12T08:20:49.483Z,17.97
2018-11-12T08:23:19.657Z,17.27
2018-11-12T08:25:49.517Z,19.70
2018-11-12T08:28:19.550Z,17.87
2018-11-12T08:30:49.562Z,15.83
2018-11-12T08:33:19.648Z,16.70
2018-11-12T08:35:49.590Z,13.63
2018-11-12T08:38:19.579Z,13.60
2018-11-12T08:40:49.756Z,13.18
2018-11-12T08:43:19.606Z,12.60
2018-11-12T08:45:49.768Z,15.40
2018-11-12T08:48:19.718Z,13.33
2018-11-12T08:50:50.498Z,11.25
2018-11-12T08:53:19.742Z,12.63
2018-11-12T08:55:49.770Z,12.90
2018-11-12T08:58:20.384Z,10.90
2018-11-12T09:00:49.869Z,10.68
2018-11-12T09:03:19.773Z,11.63
2018-11-12T09:05:49.847Z,11.10
2018-11-12T09:08:19.842Z,10.80
2018-11-12T09:10:49.860Z,10.33
2018-11-12T09:13:19.986Z,10.13
2018-11-12T09:15:50.145Z,9.05
2018-11-12T09:18:20.085Z,9.90
2018-11-12T09:20:50.042Z,9.05
2018-11-12T09:23:20.111Z,9.35
2018-11-12T09:25:50.853Z,8.33
2018-11-12T09:28:20.143Z,9.00
2018-11-12T09:30:51.525Z,15.95
2018-11-12T09:33:20.159Z,8.03
2018-11-12T09:35:50.143Z,9.83
2018-11-12T09:40:50.206Z,9.03
2018-11-12T09:43:20.332Z,8.43
2018-11-12T09:45:50.261Z,10.30
2018-11-12T09:48:20.370Z,13.08
2018-11-12T09:50:50.783Z,9.10
2018-11-12T09:53:20.987Z,10.68
2018-11-12T09:55:50.420Z,14.63
2018-11-12T09:58:20.332Z,13.07
2018-11-12T10:00:50.690Z,18.82
2018-11-12T10:03:26.801Z,11.38
2018-11-12T10:05:58.025Z,9.28
2018-11-12T10:08:27.144Z,11.17
2018-11-12T10:10:59.195Z,8.25
2018-11-12T10:13:28.857Z,9.60
2018-11-12T10:15:59.995Z,9.10
2018-11-12T10:18:25.930Z,9.83
2018-11-12T10:20:55.112Z,9.08
2018-11-12T10:23:24.347Z,8.67
2018-11-12T10:25:53.904Z,8.60
2018-11-12T10:28:23.963Z,10.10
2018-11-12T10:30:53.192Z,9.47
2018-11-12T10:33:22.513Z,8.90
2018-11-12T10:35:52.830Z,8.00
2018-11-12T10:38:23.589Z,8.63
2018-11-12T10:40:53.840Z,10.03
2018-11-12T10:43:22.986Z,9.50
2018-11-12T10:45:52.385Z,9.10
2018-11-12T10:48:21.684Z,9.80
2018-11-12T10:50:56.376Z,12.47
2018-11-12T10:53:20.951Z,9.43
2018-11-12T10:55:51.097Z,11.60
2018-11-12T10:58:20.959Z,9.90
2018-11-12T11:00:56.419Z,11.90
2018-11-12T11:03:30.914Z,10.25
2018-11-12T11:06:00.418Z,10.03
2018-11-12T11:08:29.891Z,9.93
2018-11-12T11:10:59.119Z,9.95
2018-11-12T11:13:28.415Z,10.13
2018-11-12T11:15:57.633Z,10.63
2018-11-12T11:18:26.823Z,10.53
2018-11-12T11:20:56.061Z,9.77
2018-11-12T11:23:25.337Z,10.17
2018-11-12T11:25:54.672Z,10.30
2018-11-12T11:28:23.921Z,11.10
2018-11-12T11:30:53.259Z,12.93
2018-11-12T11:33:22.601Z,13.00
2018-11-12T11:35:51.801Z,11.77
2018-11-12T11:38:22.401Z,9.85
2018-11-12T11:40:52.065Z,9.20
2018-11-12T11:43:21.543Z,10.10
2018-11-12T11:45:52.207Z,9.58
2018-11-12T11:48:21.560Z,10.73
2018-11-12T11:50:51.585Z,9.90
2018-11-12T11:53:21.397Z,9.48
2018-11-12T11:55:51.555Z,10.32
2018-11-12T11:58:21.461Z,9.70
2018-11-12T12:00:51.587Z,10.13
2018-11-12T12:03:21.536Z,9.53
2018-11-12T12:05:51.610Z,9.60
2018-11-12T12:08:21.711Z,11.23
2018-11-12T12:10:51.649Z,10.23
2018-11-12T12:13:21.893Z,10.18
2018-11-12T12:15:51.787Z,10.50
2018-11-12T12:18:21.862Z,10.80
2018-11-12T12:20:51.957Z,12.70
2018-11-12T12:23:22.197Z,10.32
2018-11-12T12:25:52.050Z,9.65
2018-11-12T12:28:21.766Z,10.17
2018-11-12T12:30:51.918Z,10.63
2018-11-12T12:33:22.090Z,11.40
2018-11-12T12:35:51.931Z,10.57
2018-11-12T12:38:22.176Z,11.75
2018-11-12T12:40:52.203Z,12.82
2018-11-12T12:43:22.053Z,13.47
2018-11-12T12:45:52.167Z,9.75
2018-11-12T12:48:22.466Z,10.38
2018-11-12T12:50:52.710Z,9.85
2018-11-12T12:53:22.340Z,11.53
2018-11-12T12:55:52.464Z,11.03
2018-11-12T12:58:22.092Z,10.10
2018-11-12T13:00:52.226Z,13.25
2018-11-12T13:03:22.108Z,11.05
2018-11-12T13:05:52.155Z,12.75
2018-11-12T13:08:22.146Z,11.10
2018-11-12T13:10:52.138Z,10.65
2018-11-12T13:13:22.267Z,10.58
2018-11-12T13:15:52.375Z,10.45
2018-11-12T13:18:22.478Z,10.43
2018-11-12T13:20:52.538Z,9.05
2018-11-12T13:23:22.334Z,10.67
2018-11-12T13:25:52.445Z,10.77
2018-11-12T13:28:22.422Z,9.57
2018-11-12T13:30:53.665Z,10.20
2018-11-12T13:33:22.862Z,9.93
2018-11-12T13:35:53.558Z,10.88
2018-11-12T13:38:22.750Z,10.37
2018-11-12T13:40:52.603Z,9.78
2018-11-12T13:43:22.606Z,10.27
2018-11-12T13:45:52.764Z,8.47
2018-11-12T13:48:22.640Z,11.00
2018-11-12T13:50:52.626Z,12.35
2018-11-12T13:53:22.675Z,9.07
2018-11-12T13:55:52.792Z,9.83
2018-11-12T13:58:22.819Z,14.23
2018-11-12T14:00:52.931Z,11.47
2018-11-12T14:03:22.974Z,14.60
2018-11-12T14:05:52.810Z,9.63
2018-11-12T14:08:23.016Z,9.88
2018-11-12T14:10:52.981Z,14.90
2018-11-12T14:13:23.229Z,11.68
2018-11-12T14:15:52.892Z,10.87
2018-11-12T14:18:22.926Z,11.90
2018-11-12T14:20:53.011Z,9.88
2018-11-12T14:23:23.222Z,10.60
2018-11-12T14:25:52.917Z,10.73
2018-11-12T14:28:23.481Z,14.15
2018-11-12T14:30:53.073Z,9.47
2018-11-12T14:33:23.312Z,10.67
2018-11-12T14:35:53.129Z,13.20
2018-11-12T14:38:23.618Z,9.80
2018-11-12T14:40:53.375Z,11.35
2018-11-12T14:43:23.380Z,10.88
2018-11-12T14:45:53.197Z,10.27
2018-11-12T14:48:23.326Z,12.10
2018-11-12T14:50:53.223Z,11.00
2018-11-12T14:53:23.310Z,14.55
2018-11-12T14:55:53.448Z,11.70
2018-11-12T14:58:23.638Z,12.95
2018-11-12T15:00:53.350Z,10.20
2018-11-12T15:03:23.439Z,14.63
2018-11-12T15:05:53.429Z,11.40
2018-11-12T15:08:23.476Z,13.80
2018-11-12T15:10:53.413Z,10.67
2018-11-12T15:13:23.852Z,14.63
2018-11-12T15:15:53.474Z,97.78
2018-11-12T15:18:23.528Z,50.38
2018-11-12T15:20:53.538Z,55.50
2018-11-12T15:23:23.857Z,33.83
2018-11-12T15:25:53.594Z,25.88
2018-11-12T15:28:23.598Z,34.20
2018-11-12T15:30:53.617Z,36.85
2018-11-12T15:33:23.636Z,28.50
2018-11-12T15:35:53.784Z,20.17
2018-11-12T15:38:23.779Z,17.45
2018-11-12T15:40:53.771Z,37.63
2018-11-12T15:43:23.804Z,45.27
2018-11-12T15:45:55.460Z,49.10
2018-11-12T15:48:24.696Z,29.20
2018-11-12T15:50:53.988Z,29.57
2018-11-12T15:53:23.932Z,72.40
2018-11-12T15:55:53.891Z,36.73
2018-11-12T15:58:24.242Z,16.80
2018-11-12T16:00:54.019Z,14.00
2018-11-12T16:03:24.091Z,16.80
2018-11-12T16:05:54.432Z,17.47
2018-11-12T16:08:24.012Z,17.15
2018-11-12T16:10:54.112Z,19.80
2018-11-12T16:13:24.269Z,17.30
2018-11-12T16:15:54.060Z,19.55
2018-11-12T16:18:24.129Z,17.67
2018-11-12T16:20:54.145Z,24.60
2018-11-12T16:23:24.274Z,24.17
2018-11-12T16:25:54.184Z,23.32
2018-11-12T16:28:24.192Z,21.85
2018-11-12T16:30:54.164Z,28.37
2018-11-12T16:33:24.262Z,25.45
2018-11-12T16:35:54.138Z,24.03
2018-11-12T16:38:25.274Z,21.40
2018-11-12T16:40:54.634Z,21.70
2018-11-12T16:43:24.450Z,23.83
2018-11-12T16:45:54.426Z,24.72
2018-11-12T16:48:24.355Z,23.07
2018-11-12T16:50:54.563Z,21.35
2018-11-12T16:53:24.430Z,26.17
2018-11-12T16:55:54.521Z,22.90
2018-11-12T16:58:24.345Z,23.73
2018-11-12T17:00:54.506Z,30.72
2018-11-12T17:03:24.478Z,24.33
2018-11-12T17:05:54.410Z,24.17
2018-11-12T17:08:24.579Z,24.67
2018-11-12T17:10:54.624Z,29.42
2018-11-12T17:13:24.599Z,29.50
2018-11-12T17:15:54.645Z,24.45
2018-11-12T17:18:24.637Z,25.30
2018-11-12T17:20:54.636Z,24.43
2018-11-12T17:23:24.688Z,25.50
2018-11-12T17:25:54.722Z,30.35
2018-11-12T17:28:24.619Z,25.97
2018-11-12T17:30:54.734Z,37.10
2018-11-12T17:33:24.707Z,27.60
2018-11-12T17:35:54.748Z,25.15
2018-11-12T17:38:25.031Z,28.00
2018-11-12T17:40:54.774Z,26.62
2018-11-12T17:43:24.886Z,30.15
2018-11-12T17:45:54.909Z,29.75
2018-11-12T17:48:24.945Z,27.87
2018-11-12T17:50:54.935Z,68.25
2018-11-12T17:53:25.555Z,36.17
2018-11-12T17:55:54.921Z,32.60
2018-11-12T17:58:25.000Z,31.35
2018-11-12T18:00:55.013Z,30.70
2018-11-12T18:03:24.985Z,28.53
2018-11-12T18:05:55.055Z,34.13
2018-11-12T18:08:25.204Z,30.35
2018-11-12T18:10:55.308Z,32.65
2018-11-12T18:13:26.228Z,30.40
2018-11-12T18:15:55.540Z,32.17
2018-11-12T18:18:25.214Z,33.48
2018-11-12T18:20:55.399Z,34.70
2018-11-12T18:23:25.492Z,33.98
2018-11-12T18:25:55.349Z,33.30
2018-11-12T18:28:25.613Z,33.95
2018-11-12T18:30:55.390Z,38.45
2018-11-12T18:33:25.339Z,37.67
2018-11-12T18:35:55.501Z,41.53
2018-11-12T18:38:25.838Z,41.48
2018-11-12T18:40:55.806Z,53.83
2018-11-12T18:43:25.586Z,43.83
2018-11-12T18:45:55.517Z,51.60
2018-11-12T18:48:25.521Z,56.20
2018-11-12T18:50:55.562Z,45.33
2018-11-12T18:53:25.897Z,46.60
2018-11-12T18:55:55.658Z,66.50
2018-11-12T18:58:25.835Z,38.13
2018-11-12T19:00:55.595Z,45.17
2018-11-12T19:03:25.783Z,35.87
2018-11-12T19:05:55.837Z,28.92
2018-11-12T19:08:25.764Z,39.63
2018-11-12T19:10:56.384Z,36.73
2018-11-12T19:13:25.938Z,65.70
2018-11-12T19:15:55.993Z,40.60
2018-11-12T19:18:26.184Z,51.98
2018-11-12T19:20:56.128Z,67.42
2018-11-12T19:23:26.125Z,87.50
2018-11-12T19:25:56.193Z,59.30
2018-11-12T19:28:26.358Z,78.40
2018-11-12T19:30:56.311Z,41.37
2018-11-12T19:33:26.261Z,41.55
2018-11-12T19:35:56.147Z,107.52
2018-11-12T19:38:26.473Z,39.53
2018-11-12T19:40:57.208Z,74.12
2018-11-12T19:43:27.231Z,31.00
2018-11-12T19:45:57.012Z,68.63
2018-11-12T19:48:26.829Z,64.90
2018-11-12T19:50:57.151Z,44.97
2018-11-12T19:53:27.413Z,80.10
2018-11-12T19:55:58.143Z,45.37
2018-11-12T19:58:27.976Z,100.97
2018-11-12T20:00:57.694Z,81.80
2018-11-12T20:03:27.516Z,41.63
2018-11-12T20:05:57.344Z,60.10
2018-11-12T20:08:28.117Z,90.40
2018-11-12T20:10:57.903Z,69.70
2018-11-12T20:13:27.620Z,48.20
2018-11-12T20:15:57.415Z,24.27
2018-11-12T20:18:28.157Z,25.13
2018-11-12T20:20:59.002Z,25.20
2018-11-12T20:23:28.866Z,22.97
2018-11-12T20:26:00.922Z,27.50
2018-11-12T20:28:30.698Z,16.10
2018-11-12T20:31:00.613Z,15.60
2018-11-12T20:33:30.358Z,16.43
2018-11-12T20:36:00.083Z,52.90
2018-11-12T20:38:30.350Z,17.00
2018-11-12T20:41:00.468Z,18.63
2018-11-12T20:43:30.362Z,28.73
2018-11-12T20:46:01.179Z,23.60
2018-11-12T20:48:30.966Z,17.03
2018-11-12T20:51:00.886Z,14.33
2018-11-12T20:53:31.691Z,11.73
2018-11-12T20:56:01.564Z,30.33
2018-11-12T20:58:31.302Z,10.03
2018-11-12T21:01:02.004Z,26.65
2018-11-12T21:03:32.327Z,57.15
2018-11-12T21:06:01.963Z,14.05
2018-11-12T21:08:31.677Z,68.33
2018-11-12T21:11:01.216Z,14.78
2018-11-12T21:13:30.898Z,27.48
2018-11-12T21:16:00.637Z,34.20
2018-11-12T21:18:30.802Z,40.70
2018-11-12T21:21:01.138Z,14.10
2018-11-12T21:23:31.356Z,20.50
2018-11-12T21:26:01.371Z,25.33
2018-11-12T21:28:31.522Z,32.55
2018-11-12T21:31:01.629Z,15.90
2018-11-12T21:33:31.941Z,15.80
2018-11-12T21:36:01.927Z,18.62
2018-11-12T21:38:31.961Z,21.93
2018-11-12T21:41:01.935Z,25.25
2018-11-12T21:43:32.314Z,17.20
2018-11-12T21:46:02.112Z,20.37
2018-11-12T21:48:32.252Z,27.43
2018-11-12T21:51:02.402Z,21.68
2018-11-12T21:53:32.535Z,16.07
2018-11-12T21:56:02.671Z,31.57
2018-11-12T21:58:32.915Z,26.07
2018-11-12T22:01:02.817Z,15.50
2018-11-12T22:03:32.904Z,10.55
2018-11-12T22:06:03.060Z,32.13
2018-11-12T22:08:33.201Z,12.53
2018-11-12T22:11:03.041Z,28.47
2018-11-12T22:13:32.925Z,26.87
2018-11-12T22:16:02.779Z,18.47
2018-11-12T22:18:32.800Z,41.75
2018-11-12T22:21:02.662Z,34.13
2018-11-12T22:23:32.735Z,19.43
2018-11-12T22:26:02.772Z,14.85
2018-11-12T22:28:32.859Z,16.83
2018-11-12T22:31:03.077Z,15.50
2018-11-12T22:33:33.149Z,10.18
2018-11-12T22:36:03.364Z,18.33
2018-11-12T22:38:33.345Z,15.70
2018-11-12T22:41:03.398Z,24.05
2018-11-12T22:43:32.724Z,40.20
2018-11-12T22:46:02.005Z,7.70
2018-11-12T22:48:31.356Z,10.43
2018-11-12T22:51:00.705Z,18.50
2018-11-12T22:53:29.995Z,9.97
2018-11-12T22:56:00.684Z,17.47
2018-11-12T22:58:29.940Z,19.43
2018-11-12T23:01:03.557Z,23.10
2018-11-12T23:03:32.858Z,12.50
2018-11-12T23:06:11.058Z,18.57
2018-11-12T23:08:41.098Z,21.70
2018-11-12T23:11:10.370Z,10.63
2018-11-12T23:13:39.651Z,9.98
2018-11-12T23:16:08.819Z,8.00
2018-11-12T23:18:38.095Z,18.30
2018-11-12T23:21:08.163Z,12.27
2018-11-12T23:23:37.505Z,88.60
2018-11-12T23:26:06.738Z,15.08
2018-11-12T23:28:35.909Z,8.38
2018-11-12T23:31:05.352Z,30.40
2018-11-12T23:33:34.766Z,38.63
2018-11-12T23:36:04.369Z,47.23
2018-11-12T23:38:33.941Z,19.93
2018-11-12T23:41:03.547Z,9.27
2018-11-12T23:43:33.119Z,7.10
2018-11-12T23:46:02.599Z,24.00
2018-11-12T23:48:32.169Z,18.93
2018-11-12T23:51:01.773Z,42.17
2018-11-12T23:53:31.299Z,29.50
2018-11-12T23:56:00.819Z,7.53
2018-11-12T23:58:30.315Z,8.30
